sensor_id;sensor_type;location;lat;lon;timestamp;P1;durP1;ratioP1;P2;durP2;ratioP2
27225;SDS011;14732;51.074;3.788;2022-07-24T00:00:07;22.35;;;14.75;;
27225;SDS011;14732;51.074;3.788;2022-07-24T00:02:33;27.10;;;15.10;;
27225;SDS011;14732;51.074;3.788;2022-07-24T00:04:59;25.15;;;15.00;;
27225;SDS011;14732;51.074;3.788;2022-07-24T00:07:26;25.23;;;14.57;;
27225;SDS011;14732;51.074;3.788;2022-07-24T00:09:52;23.67;;;14.38;;
27225;SDS011;14732;51.074;3.788;2022-07-24T00:12:19;21.75;;;14.70;;
27225;SDS011;14732;51.074;3.788;2022-07-24T00:14:45;28.13;;;14.93;;
27225;SDS011;14732;51.074;3.788;2022-07-24T00:17:10;25.80;;;15.40;;
27225;SDS011;14732;51.074;3.788;2022-07-24T00:19:36;24.35;;;14.80;;
27225;SDS011;14732;51.074;3.788;2022-07-24T00:22:02;23.67;;;15.05;;
27225;SDS011;14732;51.074;3.788;2022-07-24T00:24:28;29.85;;;14.77;;
27225;SDS011;14732;51.074;3.788;2022-07-24T00:26:54;27.00;;;14.98;;
27225;SDS011;14732;51.074;3.788;2022-07-24T00:29:20;29.55;;;15.05;;
27225;SDS011;14732;51.074;3.788;2022-07-24T00:31:46;23.05;;;13.75;;
27225;SDS011;14732;51.074;3.788;2022-07-24T00:34:12;23.05;;;13.00;;
27225;SDS011;14732;51.074;3.788;2022-07-24T00:36:37;18.17;;;11.90;;
27225;SDS011;14732;51.074;3.788;2022-07-24T00:39:03;23.08;;;12.65;;
27225;SDS011;14732;51.074;3.788;2022-07-24T00:41:29;19.23;;;11.95;;
27225;SDS011;14732;51.074;3.788;2022-07-24T00:44:03;18.65;;;11.38;;
27225;SDS011;14732;51.074;3.788;2022-07-24T00:46:40;17.50;;;10.32;;
27225;SDS011;14732;51.074;3.788;2022-07-24T00:49:08;18.55;;;9.82;;
27225;SDS011;14732;51.074;3.788;2022-07-24T00:51:35;14.15;;;9.43;;
27225;SDS011;14732;51.074;3.788;2022-07-24T00:54:05;15.68;;;9.90;;
27225;SDS011;14732;51.074;3.788;2022-07-24T00:56:31;13.45;;;8.45;;
27225;SDS011;14732;51.074;3.788;2022-07-24T00:58:57;13.38;;;8.27;;
27225;SDS011;14732;51.074;3.788;2022-07-24T01:01:24;14.52;;;7.63;;
27225;SDS011;14732;51.074;3.788;2022-07-24T01:03:49;11.40;;;7.85;;
27225;SDS011;14732;51.074;3.788;2022-07-24T01:06:15;9.50;;;7.28;;
27225;SDS011;14732;51.074;3.788;2022-07-24T01:08:41;11.23;;;7.32;;
27225;SDS011;14732;51.074;3.788;2022-07-24T01:11:10;12.38;;;7.35;;
27225;SDS011;14732;51.074;3.788;2022-07-24T01:13:37;10.43;;;6.70;;
27225;SDS011;14732;51.074;3.788;2022-07-24T01:16:03;9.93;;;6.53;;
27225;SDS011;14732;51.074;3.788;2022-07-24T01:18:29;11.75;;;6.75;;
27225;SDS011;14732;51.074;3.788;2022-07-24T01:20:55;10.23;;;6.53;;
27225;SDS011;14732;51.074;3.788;2022-07-24T01:23:21;10.50;;;6.88;;
27225;SDS011;14732;51.074;3.788;2022-07-24T01:25:48;13.02;;;6.82;;
27225;SDS011;14732;51.074;3.788;2022-07-24T01:28:13;10.88;;;6.60;;
27225;SDS011;14732;51.074;3.788;2022-07-24T01:30:39;11.38;;;6.90;;
27225;SDS011;14732;51.074;3.788;2022-07-24T01:33:05;8.05;;;6.47;;
27225;SDS011;14732;51.074;3.788;2022-07-24T01:35:31;11.25;;;6.55;;
27225;SDS011;14732;51.074;3.788;2022-07-24T01:37:57;10.68;;;6.38;;
27225;SDS011;14732;51.074;3.788;2022-07-24T01:40:22;15.93;;;6.57;;
27225;SDS011;14732;51.074;3.788;2022-07-24T01:42:48;9.27;;;6.60;;
27225;SDS011;14732;51.074;3.788;2022-07-24T01:45:14;9.25;;;6.55;;
27225;SDS011;14732;51.074;3.788;2022-07-24T01:47:40;14.60;;;7.60;;
27225;SDS011;14732;51.074;3.788;2022-07-24T01:50:08;12.27;;;7.20;;
27225;SDS011;14732;51.074;3.788;2022-07-24T01:52:37;10.20;;;7.55;;
27225;SDS011;14732;51.074;3.788;2022-07-24T01:55:03;12.15;;;7.95;;
27225;SDS011;14732;51.074;3.788;2022-07-24T01:57:30;13.07;;;7.47;;
27225;SDS011;14732;51.074;3.788;2022-07-24T01:59:57;11.68;;;6.72;;
27225;SDS011;14732;51.074;3.788;2022-07-24T02:02:23;11.48;;;7.80;;
27225;SDS011;14732;51.074;3.788;2022-07-24T02:04:49;12.10;;;8.38;;
27225;SDS011;14732;51.074;3.788;2022-07-24T02:07:15;11.18;;;8.63;;
27225;SDS011;14732;51.074;3.788;2022-07-24T02:09:40;15.27;;;9.45;;
27225;SDS011;14732;51.074;3.788;2022-07-24T02:12:06;15.57;;;9.75;;
27225;SDS011;14732;51.074;3.788;2022-07-24T02:14:32;21.17;;;10.25;;
27225;SDS011;14732;51.074;3.788;2022-07-24T02:16:58;16.75;;;10.50;;
27225;SDS011;14732;51.074;3.788;2022-07-24T02:19:23;16.10;;;10.38;;
27225;SDS011;14732;51.074;3.788;2022-07-24T02:21:49;18.02;;;10.57;;
27225;SDS011;14732;51.074;3.788;2022-07-24T02:24:15;17.65;;;9.98;;
27225;SDS011;14732;51.074;3.788;2022-07-24T02:26:41;13.50;;;10.18;;
27225;SDS011;14732;51.074;3.788;2022-07-24T02:29:07;15.13;;;9.98;;
27225;SDS011;14732;51.074;3.788;2022-07-24T02:31:32;15.60;;;10.35;;
27225;SDS011;14732;51.074;3.788;2022-07-24T02:33:58;14.07;;;9.77;;
27225;SDS011;14732;51.074;3.788;2022-07-24T02:36:24;19.98;;;10.02;;
27225;SDS011;14732;51.074;3.788;2022-07-24T02:38:50;13.90;;;9.55;;
27225;SDS011;14732;51.074;3.788;2022-07-24T02:41:16;14.75;;;9.30;;
27225;SDS011;14732;51.074;3.788;2022-07-24T02:43:42;15.40;;;8.60;;
27225;SDS011;14732;51.074;3.788;2022-07-24T02:46:08;12.48;;;8.70;;
27225;SDS011;14732;51.074;3.788;2022-07-24T02:48:34;12.02;;;8.60;;
27225;SDS011;14732;51.074;3.788;2022-07-24T02:50:59;12.73;;;8.90;;
27225;SDS011;14732;51.074;3.788;2022-07-24T02:53:25;17.15;;;8.85;;
27225;SDS011;14732;51.074;3.788;2022-07-24T02:55:51;16.40;;;8.80;;
27225;SDS011;14732;51.074;3.788;2022-07-24T02:58:16;12.55;;;8.77;;
27225;SDS011;14732;51.074;3.788;2022-07-24T03:00:42;12.25;;;8.05;;
27225;SDS011;14732;51.074;3.788;2022-07-24T03:03:08;10.27;;;7.60;;
27225;SDS011;14732;51.074;3.788;2022-07-24T03:05:33;12.88;;;7.55;;
27225;SDS011;14732;51.074;3.788;2022-07-24T03:07:59;9.80;;;7.57;;
27225;SDS011;14732;51.074;3.788;2022-07-24T03:10:25;9.60;;;7.85;;
27225;SDS011;14732;51.074;3.788;2022-07-24T03:12:50;12.95;;;6.78;;
27225;SDS011;14732;51.074;3.788;2022-07-24T03:15:16;14.38;;;7.57;;
27225;SDS011;14732;51.074;3.788;2022-07-24T03:17:49;10.63;;;7.15;;
27225;SDS011;14732;51.074;3.788;2022-07-24T03:20:16;13.13;;;7.15;;
27225;SDS011;14732;51.074;3.788;2022-07-24T03:22:43;10.88;;;7.18;;
27225;SDS011;14732;51.074;3.788;2022-07-24T03:25:09;11.65;;;7.05;;
27225;SDS011;14732;51.074;3.788;2022-07-24T03:27:35;12.73;;;7.72;;
27225;SDS011;14732;51.074;3.788;2022-07-24T03:30:03;11.85;;;8.02;;
27225;SDS011;14732;51.074;3.788;2022-07-24T03:32:29;12.40;;;7.50;;
27225;SDS011;14732;51.074;3.788;2022-07-24T03:34:55;13.00;;;7.70;;
27225;SDS011;14732;51.074;3.788;2022-07-24T03:37:21;11.23;;;7.85;;
27225;SDS011;14732;51.074;3.788;2022-07-24T03:39:47;13.18;;;8.35;;
27225;SDS011;14732;51.074;3.788;2022-07-24T03:42:12;14.13;;;8.00;;
27225;SDS011;14732;51.074;3.788;2022-07-24T03:44:38;9.65;;;7.63;;
27225;SDS011;14732;51.074;3.788;2022-07-24T03:47:04;12.68;;;8.27;;
27225;SDS011;14732;51.074;3.788;2022-07-24T03:49:29;15.00;;;7.93;;
27225;SDS011;14732;51.074;3.788;2022-07-24T03:51:55;14.32;;;8.30;;
27225;SDS011;14732;51.074;3.788;2022-07-24T03:54:21;12.65;;;8.15;;
27225;SDS011;14732;51.074;3.788;2022-07-24T03:56:47;15.27;;;8.57;;
27225;SDS011;14732;51.074;3.788;2022-07-24T03:59:13;15.63;;;8.35;;
27225;SDS011;14732;51.074;3.788;2022-07-24T04:01:38;11.52;;;8.05;;
27225;SDS011;14732;51.074;3.788;2022-07-24T04:04:04;14.25;;;8.80;;
27225;SDS011;14732;51.074;3.788;2022-07-24T04:06:30;13.60;;;8.55;;
27225;SDS011;14732;51.074;3.788;2022-07-24T04:08:58;16.67;;;8.43;;
27225;SDS011;14732;51.074;3.788;2022-07-24T04:11:24;15.57;;;8.95;;
27225;SDS011;14732;51.074;3.788;2022-07-24T04:13:50;17.20;;;8.95;;
27225;SDS011;14732;51.074;3.788;2022-07-24T04:16:15;15.55;;;8.15;;
27225;SDS011;14732;51.074;3.788;2022-07-24T04:18:41;15.00;;;8.32;;
27225;SDS011;14732;51.074;3.788;2022-07-24T04:21:07;13.48;;;8.13;;
27225;SDS011;14732;51.074;3.788;2022-07-24T04:23:33;14.00;;;8.77;;
27225;SDS011;14732;51.074;3.788;2022-07-24T04:25:58;14.73;;;8.10;;
27225;SDS011;14732;51.074;3.788;2022-07-24T04:28:24;14.85;;;8.15;;
27225;SDS011;14732;51.074;3.788;2022-07-24T04:30:50;10.75;;;7.60;;
27225;SDS011;14732;51.074;3.788;2022-07-24T04:33:15;12.52;;;7.93;;
27225;SDS011;14732;51.074;3.788;2022-07-24T04:35:41;13.25;;;7.63;;
27225;SDS011;14732;51.074;3.788;2022-07-24T04:38:07;12.23;;;8.07;;
27225;SDS011;14732;51.074;3.788;2022-07-24T04:40:32;16.70;;;8.02;;
27225;SDS011;14732;51.074;3.788;2022-07-24T04:42:58;13.65;;;8.25;;
27225;SDS011;14732;51.074;3.788;2022-07-24T04:45:23;13.43;;;8.15;;
27225;SDS011;14732;51.074;3.788;2022-07-24T04:47:49;11.30;;;7.72;;
27225;SDS011;14732;51.074;3.788;2022-07-24T04:50:15;12.43;;;7.80;;
27225;SDS011;14732;51.074;3.788;2022-07-24T04:52:41;13.82;;;8.00;;
27225;SDS011;14732;51.074;3.788;2022-07-24T04:55:08;14.25;;;7.45;;
27225;SDS011;14732;51.074;3.788;2022-07-24T04:57:34;9.85;;;7.05;;
27225;SDS011;14732;51.074;3.788;2022-07-24T05:00:00;12.73;;;7.25;;
27225;SDS011;14732;51.074;3.788;2022-07-24T05:02:26;14.93;;;7.32;;
27225;SDS011;14732;51.074;3.788;2022-07-24T05:04:51;11.73;;;7.80;;
27225;SDS011;14732;51.074;3.788;2022-07-24T05:07:17;10.70;;;6.93;;
27225;SDS011;14732;51.074;3.788;2022-07-24T05:09:43;11.02;;;7.13;;
27225;SDS011;14732;51.074;3.788;2022-07-24T05:12:08;11.85;;;6.78;;
27225;SDS011;14732;51.074;3.788;2022-07-24T05:14:34;9.02;;;6.50;;
27225;SDS011;14732;51.074;3.788;2022-07-24T05:17:00;8.93;;;6.00;;
27225;SDS011;14732;51.074;3.788;2022-07-24T05:19:25;8.30;;;6.28;;
27225;SDS011;14732;51.074;3.788;2022-07-24T05:21:51;9.18;;;5.80;;
27225;SDS011;14732;51.074;3.788;2022-07-24T05:24:16;8.25;;;5.20;;
27225;SDS011;14732;51.074;3.788;2022-07-24T05:26:42;8.52;;;5.22;;
27225;SDS011;14732;51.074;3.788;2022-07-24T05:29:08;8.20;;;5.25;;
27225;SDS011;14732;51.074;3.788;2022-07-24T05:31:33;7.85;;;4.90;;
27225;SDS011;14732;51.074;3.788;2022-07-24T05:33:59;4.63;;;4.13;;
27225;SDS011;14732;51.074;3.788;2022-07-24T05:36:27;7.22;;;4.45;;
27225;SDS011;14732;51.074;3.788;2022-07-24T05:38:54;4.97;;;3.47;;
27225;SDS011;14732;51.074;3.788;2022-07-24T05:41:19;6.80;;;3.58;;
27225;SDS011;14732;51.074;3.788;2022-07-24T05:43:45;4.15;;;2.90;;
27225;SDS011;14732;51.074;3.788;2022-07-24T05:46:11;7.68;;;3.25;;
27225;SDS011;14732;51.074;3.788;2022-07-24T05:48:37;7.40;;;3.33;;
27225;SDS011;14732;51.074;3.788;2022-07-24T05:51:02;6.70;;;3.65;;
27225;SDS011;14732;51.074;3.788;2022-07-24T05:53:28;9.50;;;3.78;;
27225;SDS011;14732;51.074;3.788;2022-07-24T05:55:54;8.98;;;3.15;;
27225;SDS011;14732;51.074;3.788;2022-07-24T05:58:20;6.10;;;3.67;;
27225;SDS011;14732;51.074;3.788;2022-07-24T06:00:45;4.95;;;3.28;;
27225;SDS011;14732;51.074;3.788;2022-07-24T06:03:11;5.80;;;3.00;;
27225;SDS011;14732;51.074;3.788;2022-07-24T06:05:37;4.32;;;3.17;;
27225;SDS011;14732;51.074;3.788;2022-07-24T06:08:03;5.72;;;2.97;;
27225;SDS011;14732;51.074;3.788;2022-07-24T06:10:29;7.28;;;2.97;;
27225;SDS011;14732;51.074;3.788;2022-07-24T06:12:55;6.20;;;3.22;;
27225;SDS011;14732;51.074;3.788;2022-07-24T06:15:20;5.78;;;2.85;;
27225;SDS011;14732;51.074;3.788;2022-07-24T06:17:46;6.35;;;3.10;;
27225;SDS011;14732;51.074;3.788;2022-07-24T06:20:12;4.93;;;3.00;;
27225;SDS011;14732;51.074;3.788;2022-07-24T06:22:39;4.03;;;3.08;;
27225;SDS011;14732;51.074;3.788;2022-07-24T06:25:05;4.75;;;2.60;;
27225;SDS011;14732;51.074;3.788;2022-07-24T06:27:31;5.60;;;3.20;;
27225;SDS011;14732;51.074;3.788;2022-07-24T06:29:57;6.15;;;3.42;;
27225;SDS011;14732;51.074;3.788;2022-07-24T06:32:23;6.45;;;3.25;;
27225;SDS011;14732;51.074;3.788;2022-07-24T06:34:48;5.43;;;2.85;;
27225;SDS011;14732;51.074;3.788;2022-07-24T06:37:15;4.47;;;3.17;;
27225;SDS011;14732;51.074;3.788;2022-07-24T06:39:41;6.22;;;2.97;;
27225;SDS011;14732;51.074;3.788;2022-07-24T06:42:06;5.40;;;3.13;;
27225;SDS011;14732;51.074;3.788;2022-07-24T06:44:32;6.43;;;3.00;;
27225;SDS011;14732;51.074;3.788;2022-07-24T06:47:01;6.95;;;3.10;;
27225;SDS011;14732;51.074;3.788;2022-07-24T06:49:27;5.03;;;2.92;;
27225;SDS011;14732;51.074;3.788;2022-07-24T06:51:55;6.13;;;3.22;;
27225;SDS011;14732;51.074;3.788;2022-07-24T06:54:21;7.30;;;2.83;;
27225;SDS011;14732;51.074;3.788;2022-07-24T06:56:46;5.38;;;2.90;;
27225;SDS011;14732;51.074;3.788;2022-07-24T06:59:12;5.18;;;2.60;;
27225;SDS011;14732;51.074;3.788;2022-07-24T07:01:38;6.47;;;2.50;;
27225;SDS011;14732;51.074;3.788;2022-07-24T07:04:04;4.88;;;2.60;;
27225;SDS011;14732;51.074;3.788;2022-07-24T07:06:30;4.28;;;2.78;;
27225;SDS011;14732;51.074;3.788;2022-07-24T07:08:56;4.38;;;2.78;;
27225;SDS011;14732;51.074;3.788;2022-07-24T07:11:22;4.65;;;2.75;;
27225;SDS011;14732;51.074;3.788;2022-07-24T07:13:48;4.00;;;2.50;;
27225;SDS011;14732;51.074;3.788;2022-07-24T07:16:14;5.65;;;2.15;;
27225;SDS011;14732;51.074;3.788;2022-07-24T07:18:40;4.50;;;2.42;;
27225;SDS011;14732;51.074;3.788;2022-07-24T07:21:07;3.78;;;2.00;;
27225;SDS011;14732;51.074;3.788;2022-07-24T07:23:33;4.72;;;1.90;;
27225;SDS011;14732;51.074;3.788;2022-07-24T07:25:58;3.63;;;1.88;;
27225;SDS011;14732;51.074;3.788;2022-07-24T07:28:24;2.97;;;1.95;;
27225;SDS011;14732;51.074;3.788;2022-07-24T07:30:50;2.75;;;1.90;;
27225;SDS011;14732;51.074;3.788;2022-07-24T07:33:16;2.55;;;1.70;;
27225;SDS011;14732;51.074;3.788;2022-07-24T07:35:41;2.83;;;2.00;;
27225;SDS011;14732;51.074;3.788;2022-07-24T07:38:07;2.30;;;1.73;;
27225;SDS011;14732;51.074;3.788;2022-07-24T07:40:33;2.40;;;1.70;;
27225;SDS011;14732;51.074;3.788;2022-07-24T07:42:58;2.35;;;1.80;;
27225;SDS011;14732;51.074;3.788;2022-07-24T07:45:24;3.78;;;1.77;;
27225;SDS011;14732;51.074;3.788;2022-07-24T07:47:50;3.40;;;1.70;;
27225;SDS011;14732;51.074;3.788;2022-07-24T07:50:15;2.60;;;1.90;;
27225;SDS011;14732;51.074;3.788;2022-07-24T07:52:41;2.10;;;1.50;;
27225;SDS011;14732;51.074;3.788;2022-07-24T07:55:07;3.05;;;1.67;;
27225;SDS011;14732;51.074;3.788;2022-07-24T07:57:33;4.07;;;1.75;;
27225;SDS011;14732;51.074;3.788;2022-07-24T07:59:58;2.58;;;1.60;;
27225;SDS011;14732;51.074;3.788;2022-07-24T08:02:24;2.85;;;1.60;;
27225;SDS011;14732;51.074;3.788;2022-07-24T08:04:49;2.30;;;1.55;;
27225;SDS011;14732;51.074;3.788;2022-07-24T08:07:15;2.53;;;1.65;;
27225;SDS011;14732;51.074;3.788;2022-07-24T08:09:41;6.38;;;1.85;;
27225;SDS011;14732;51.074;3.788;2022-07-24T08:12:07;4.30;;;1.90;;
27225;SDS011;14732;51.074;3.788;2022-07-24T08:14:32;3.17;;;1.88;;
27225;SDS011;14732;51.074;3.788;2022-07-24T08:16:58;3.13;;;1.95;;
27225;SDS011;14732;51.074;3.788;2022-07-24T08:19:24;3.30;;;1.85;;
27225;SDS011;14732;51.074;3.788;2022-07-24T08:21:49;3.97;;;1.90;;
27225;SDS011;14732;51.074;3.788;2022-07-24T08:24:15;3.25;;;1.90;;
27225;SDS011;14732;51.074;3.788;2022-07-24T08:29:14;2.03;;;1.83;;
27225;SDS011;14732;51.074;3.788;2022-07-24T08:31:41;6.57;;;1.90;;
27225;SDS011;14732;51.074;3.788;2022-07-24T08:34:06;2.20;;;2.00;;
27225;SDS011;14732;51.074;3.788;2022-07-24T08:36:32;2.33;;;2.13;;
27225;SDS011;14732;51.074;3.788;2022-07-24T08:38:58;2.53;;;2.00;;
27225;SDS011;14732;51.074;3.788;2022-07-24T08:41:23;3.70;;;2.10;;
27225;SDS011;14732;51.074;3.788;2022-07-24T08:43:49;3.63;;;2.03;;
27225;SDS011;14732;51.074;3.788;2022-07-24T08:46:15;3.05;;;1.88;;
27225;SDS011;14732;51.074;3.788;2022-07-24T08:48:44;2.08;;;1.67;;
27225;SDS011;14732;51.074;3.788;2022-07-24T08:51:14;2.83;;;1.77;;
27225;SDS011;14732;51.074;3.788;2022-07-24T08:53:40;2.45;;;1.70;;
27225;SDS011;14732;51.074;3.788;2022-07-24T08:56:07;2.00;;;1.60;;
27225;SDS011;14732;51.074;3.788;2022-07-24T08:58:38;3.45;;;1.63;;
27225;SDS011;14732;51.074;3.788;2022-07-24T09:01:04;2.72;;;2.13;;
27225;SDS011;14732;51.074;3.788;2022-07-24T09:03:38;5.03;;;1.92;;
27225;SDS011;14732;51.074;3.788;2022-07-24T09:06:06;6.13;;;2.00;;
27225;SDS011;14732;51.074;3.788;2022-07-24T09:08:33;6.03;;;2.20;;
27225;SDS011;14732;51.074;3.788;2022-07-24T09:11:02;3.85;;;2.08;;
27225;SDS011;14732;51.074;3.788;2022-07-24T09:13:29;4.93;;;2.10;;
27225;SDS011;14732;51.074;3.788;2022-07-24T09:16:19;3.33;;;2.03;;
27225;SDS011;14732;51.074;3.788;2022-07-24T09:18:50;4.32;;;2.00;;
27225;SDS011;14732;51.074;3.788;2022-07-24T09:21:27;3.38;;;2.17;;
27225;SDS011;14732;51.074;3.788;2022-07-24T09:26:42;2.97;;;2.15;;
27225;SDS011;14732;51.074;3.788;2022-07-24T09:29:19;2.63;;;2.40;;
27225;SDS011;14732;51.074;3.788;2022-07-24T09:31:53;2.83;;;2.08;;
27225;SDS011;14732;51.074;3.788;2022-07-24T09:34:27;3.60;;;2.38;;
27225;SDS011;14732;51.074;3.788;2022-07-24T09:37:04;4.28;;;2.28;;
27225;SDS011;14732;51.074;3.788;2022-07-24T09:39:32;4.65;;;2.58;;
27225;SDS011;14732;51.074;3.788;2022-07-24T09:41:59;4.03;;;2.78;;
27225;SDS011;14732;51.074;3.788;2022-07-24T09:44:25;2.70;;;2.50;;
27225;SDS011;14732;51.074;3.788;2022-07-24T09:46:55;8.60;;;2.65;;
27225;SDS011;14732;51.074;3.788;2022-07-24T09:49:22;4.50;;;2.65;;
27225;SDS011;14732;51.074;3.788;2022-07-24T09:54:41;5.60;;;2.65;;
27225;SDS011;14732;51.074;3.788;2022-07-24T09:59:48;4.15;;;2.50;;
27225;SDS011;14732;51.074;3.788;2022-07-24T10:02:16;3.35;;;2.72;;
27225;SDS011;14732;51.074;3.788;2022-07-24T10:04:44;6.60;;;2.58;;
27225;SDS011;14732;51.074;3.788;2022-07-24T10:07:11;2.80;;;2.30;;
27225;SDS011;14732;51.074;3.788;2022-07-24T10:09:42;4.90;;;2.88;;
27225;SDS011;14732;51.074;3.788;2022-07-24T10:12:14;4.07;;;2.60;;
27225;SDS011;14732;51.074;3.788;2022-07-24T10:14:42;3.75;;;2.10;;
27225;SDS011;14732;51.074;3.788;2022-07-24T10:17:09;6.43;;;2.65;;
27225;SDS011;14732;51.074;3.788;2022-07-24T10:19:41;7.05;;;2.90;;
27225;SDS011;14732;51.074;3.788;2022-07-24T10:22:18;6.15;;;2.83;;
27225;SDS011;14732;51.074;3.788;2022-07-24T10:29:51;7.18;;;2.85;;
27225;SDS011;14732;51.074;3.788;2022-07-24T10:32:18;4.00;;;2.67;;
27225;SDS011;14732;51.074;3.788;2022-07-24T10:34:48;4.65;;;2.95;;
27225;SDS011;14732;51.074;3.788;2022-07-24T10:37:45;3.13;;;2.83;;
27225;SDS011;14732;51.074;3.788;2022-07-24T10:45:37;5.90;;;2.92;;
27225;SDS011;14732;51.074;3.788;2022-07-24T10:48:44;7.13;;;3.20;;
27225;SDS011;14732;51.074;3.788;2022-07-24T10:51:05;4.57;;;2.95;;
27225;SDS011;14732;51.074;3.788;2022-07-24T11:01:35;5.38;;;2.75;;
27225;SDS011;14732;51.074;3.788;2022-07-24T11:06:55;4.22;;;3.05;;
27225;SDS011;14732;51.074;3.788;2022-07-24T11:12:27;5.82;;;2.90;;
27225;SDS011;14732;51.074;3.788;2022-07-24T11:14:57;3.75;;;2.25;;
27225;SDS011;14732;51.074;3.788;2022-07-24T11:17:44;3.60;;;2.60;;
27225;SDS011;14732;51.074;3.788;2022-07-24T11:20:15;7.03;;;3.00;;
27225;SDS011;14732;51.074;3.788;2022-07-24T11:22:44;4.32;;;2.60;;
27225;SDS011;14732;51.074;3.788;2022-07-24T11:27:54;6.80;;;2.72;;
27225;SDS011;14732;51.074;3.788;2022-07-24T11:30:40;4.05;;;2.70;;
27225;SDS011;14732;51.074;3.788;2022-07-24T11:33:10;4.43;;;2.70;;
27225;SDS011;14732;51.074;3.788;2022-07-24T11:35:37;4.85;;;2.92;;
27225;SDS011;14732;51.074;3.788;2022-07-24T11:38:04;4.55;;;2.63;;
27225;SDS011;14732;51.074;3.788;2022-07-24T11:40:32;3.22;;;2.60;;
27225;SDS011;14732;51.074;3.788;2022-07-24T11:42:59;4.18;;;2.70;;
27225;SDS011;14732;51.074;3.788;2022-07-24T11:45:26;4.35;;;2.88;;
27225;SDS011;14732;51.074;3.788;2022-07-24T11:47:52;3.20;;;2.90;;
27225;SDS011;14732;51.074;3.788;2022-07-24T11:50:22;3.28;;;2.88;;
27225;SDS011;14732;51.074;3.788;2022-07-24T11:52:49;3.78;;;3.00;;
27225;SDS011;14732;51.074;3.788;2022-07-24T11:55:17;2.65;;;2.45;;
27225;SDS011;14732;51.074;3.788;2022-07-24T11:57:46;4.03;;;3.15;;
27225;SDS011;14732;51.074;3.788;2022-07-24T12:00:14;4.65;;;3.00;;
27225;SDS011;14732;51.074;3.788;2022-07-24T12:02:46;3.75;;;3.13;;
27225;SDS011;14732;51.074;3.788;2022-07-24T12:05:13;4.05;;;2.65;;
27225;SDS011;14732;51.074;3.788;2022-07-24T12:07:47;9.43;;;3.42;;
27225;SDS011;14732;51.074;3.788;2022-07-24T12:10:13;6.68;;;3.20;;
27225;SDS011;14732;51.074;3.788;2022-07-24T12:12:46;9.82;;;3.33;;
27225;SDS011;14732;51.074;3.788;2022-07-24T12:15:13;4.68;;;3.05;;
27225;SDS011;14732;51.074;3.788;2022-07-24T12:20:35;4.75;;;2.83;;
27225;SDS011;14732;51.074;3.788;2022-07-24T12:23:03;3.08;;;2.58;;
27225;SDS011;14732;51.074;3.788;2022-07-24T12:25:32;5.07;;;2.75;;
27225;SDS011;14732;51.074;3.788;2022-07-24T12:28:17;3.25;;;2.92;;
27225;SDS011;14732;51.074;3.788;2022-07-24T12:30:45;6.03;;;2.88;;
27225;SDS011;14732;51.074;3.788;2022-07-24T12:39:07;3.80;;;2.97;;
27225;SDS011;14732;51.074;3.788;2022-07-24T12:41:27;7.72;;;3.42;;
27225;SDS011;14732;51.074;3.788;2022-07-24T12:43:55;3.58;;;3.28;;
27225;SDS011;14732;51.074;3.788;2022-07-24T12:46:23;3.67;;;3.35;;
27225;SDS011;14732;51.074;3.788;2022-07-24T12:48:58;6.57;;;3.10;;
27225;SDS011;14732;51.074;3.788;2022-07-24T12:54:16;3.97;;;3.15;;
27225;SDS011;14732;51.074;3.788;2022-07-24T12:56:44;4.57;;;3.08;;
27225;SDS011;14732;51.074;3.788;2022-07-24T12:59:20;5.20;;;3.20;;
27225;SDS011;14732;51.074;3.788;2022-07-24T13:04:17;3.70;;;3.10;;
27225;SDS011;14732;51.074;3.788;2022-07-24T13:06:45;6.32;;;3.30;;
27225;SDS011;14732;51.074;3.788;2022-07-24T13:09:13;5.60;;;3.05;;
27225;SDS011;14732;51.074;3.788;2022-07-24T13:11:40;4.57;;;3.25;;
27225;SDS011;14732;51.074;3.788;2022-07-24T13:14:08;5.72;;;3.30;;
27225;SDS011;14732;51.074;3.788;2022-07-24T13:16:38;4.10;;;3.42;;
27225;SDS011;14732;51.074;3.788;2022-07-24T13:19:08;7.53;;;3.17;;
27225;SDS011;14732;51.074;3.788;2022-07-24T13:21:35;3.55;;;3.20;;
27225;SDS011;14732;51.074;3.788;2022-07-24T13:24:05;5.30;;;3.22;;
27225;SDS011;14732;51.074;3.788;2022-07-24T13:26:32;5.82;;;3.05;;
27225;SDS011;14732;51.074;3.788;2022-07-24T13:28:58;3.78;;;3.42;;
27225;SDS011;14732;51.074;3.788;2022-07-24T13:31:24;3.92;;;3.38;;
27225;SDS011;14732;51.074;3.788;2022-07-24T13:33:50;3.90;;;3.47;;
27225;SDS011;14732;51.074;3.788;2022-07-24T13:36:16;3.92;;;3.53;;
27225;SDS011;14732;51.074;3.788;2022-07-24T13:38:43;4.97;;;3.13;;
27225;SDS011;14732;51.074;3.788;2022-07-24T13:41:09;9.70;;;3.83;;
27225;SDS011;14732;51.074;3.788;2022-07-24T13:43:35;8.70;;;3.65;;
27225;SDS011;14732;51.074;3.788;2022-07-24T13:46:04;5.20;;;3.47;;
27225;SDS011;14732;51.074;3.788;2022-07-24T13:48:30;4.72;;;3.65;;
27225;SDS011;14732;51.074;3.788;2022-07-24T13:50:56;4.18;;;3.80;;
27225;SDS011;14732;51.074;3.788;2022-07-24T13:53:22;7.38;;;3.70;;
27225;SDS011;14732;51.074;3.788;2022-07-24T13:55:48;4.35;;;3.92;;
27225;SDS011;14732;51.074;3.788;2022-07-24T13:58:14;6.00;;;3.90;;
27225;SDS011;14732;51.074;3.788;2022-07-24T14:00:40;6.38;;;3.95;;
27225;SDS011;14732;51.074;3.788;2022-07-24T14:03:06;5.38;;;3.70;;
27225;SDS011;14732;51.074;3.788;2022-07-24T14:05:31;4.38;;;3.58;;
27225;SDS011;14732;51.074;3.788;2022-07-24T14:07:57;3.97;;;3.65;;
27225;SDS011;14732;51.074;3.788;2022-07-24T14:10:23;4.45;;;3.80;;
27225;SDS011;14732;51.074;3.788;2022-07-24T14:12:49;3.70;;;3.40;;
27225;SDS011;14732;51.074;3.788;2022-07-24T14:15:15;4.90;;;4.13;;
27225;SDS011;14732;51.074;3.788;2022-07-24T14:17:41;4.60;;;3.67;;
27225;SDS011;14732;51.074;3.788;2022-07-24T14:20:09;7.75;;;3.75;;
27225;SDS011;14732;51.074;3.788;2022-07-24T14:22:35;5.13;;;3.90;;
27225;SDS011;14732;51.074;3.788;2022-07-24T14:25:02;4.18;;;3.63;;
27225;SDS011;14732;51.074;3.788;2022-07-24T14:27:28;4.30;;;3.95;;
27225;SDS011;14732;51.074;3.788;2022-07-24T14:29:54;5.40;;;3.80;;
27225;SDS011;14732;51.074;3.788;2022-07-24T14:32:20;4.05;;;3.55;;
27225;SDS011;14732;51.074;3.788;2022-07-24T14:34:46;6.03;;;3.97;;
27225;SDS011;14732;51.074;3.788;2022-07-24T14:37:11;6.20;;;4.15;;
27225;SDS011;14732;51.074;3.788;2022-07-24T14:39:37;4.43;;;3.90;;
27225;SDS011;14732;51.074;3.788;2022-07-24T14:42:03;7.03;;;4.10;;
27225;SDS011;14732;51.074;3.788;2022-07-24T14:44:29;4.03;;;3.50;;
27225;SDS011;14732;51.074;3.788;2022-07-24T14:46:55;14.05;;;3.83;;
27225;SDS011;14732;51.074;3.788;2022-07-24T14:49:20;5.20;;;3.67;;
27225;SDS011;14732;51.074;3.788;2022-07-24T14:51:46;5.30;;;3.92;;
27225;SDS011;14732;51.074;3.788;2022-07-24T14:54:12;5.05;;;4.10;;
27225;SDS011;14732;51.074;3.788;2022-07-24T14:56:38;5.97;;;3.90;;
27225;SDS011;14732;51.074;3.788;2022-07-24T14:59:04;8.32;;;4.18;;
27225;SDS011;14732;51.074;3.788;2022-07-24T15:01:30;7.18;;;3.47;;
27225;SDS011;14732;51.074;3.788;2022-07-24T15:03:56;6.70;;;3.80;;
27225;SDS011;14732;51.074;3.788;2022-07-24T15:06:22;4.63;;;3.72;;
27225;SDS011;14732;51.074;3.788;2022-07-24T15:08:47;5.13;;;3.88;;
27225;SDS011;14732;51.074;3.788;2022-07-24T15:11:13;7.63;;;3.97;;
27225;SDS011;14732;51.074;3.788;2022-07-24T15:13:38;4.70;;;3.85;;
27225;SDS011;14732;51.074;3.788;2022-07-24T15:16:07;4.43;;;3.67;;
27225;SDS011;14732;51.074;3.788;2022-07-24T15:18:33;4.20;;;3.60;;
27225;SDS011;14732;51.074;3.788;2022-07-24T15:20:59;7.22;;;4.00;;
27225;SDS011;14732;51.074;3.788;2022-07-24T15:23:25;5.68;;;3.92;;
27225;SDS011;14732;51.074;3.788;2022-07-24T15:25:51;7.60;;;4.20;;
27225;SDS011;14732;51.074;3.788;2022-07-24T15:28:18;4.65;;;3.80;;
27225;SDS011;14732;51.074;3.788;2022-07-24T15:30:44;6.50;;;4.07;;
27225;SDS011;14732;51.074;3.788;2022-07-24T15:33:10;4.53;;;4.00;;